Aviation Digital Data Service (ADDS)

Output produced by METARs form (1615 UTC 01 October 2014)
found at http://www.aviationweather.gov/adds/metars/
 
KALB 011600Z 0116/0212 36003KT P6SM VCSH SCT009 BKN018 OVC030 
     FM020000 VRB03KT P6SM BKN030 OVC060